Koyo Maru — JI3710 — position and weather

sailwx.info

Track history (hours):
 
Tides and Currents Weather Stations Pressure Air Temp Water Temp Dewpoint Dewpoint Depression Visibility Wind Speed Wind Dir Waves Ship Positions

Koyo Maru

Last reported at 2017-Jan-24 10:29 UTC. Time now 2017-Jan-24 13:20 UTC.
Position N 35°07' E 139°43'.

Length 125 m; draft 6 m.

Type: Cargo ship. MMSI: 431401953.

Date/timePositionNaut miles runAvg speedWind from/ knotsBaromVisibWave heightAir tempDewpointWater temp
2017-Jan-24 10:29N 35°07' E 139°43'1212.4
2017-Jan-24 09:33N 35°18' E 139°43'1010.5
2017-Jan-24 08:33N 35°28' E 139°49'1413.7
2017-Jan-24 07:34N 35°35' E 140°03'2 0.3
2017-Jan-23 23:08N 35°37' E 140°05'3 4.6
2017-Jan-23 22:32N 35°35' E 140°03'2 2.2
2017-Jan-23 21:29N 35°35' E 139°60'0 0.0
2017-Jan-23 20:32N 35°35' E 139°60'0 0.0
2017-Jan-23 19:32N 35°35' E 139°60'0 0.0
2017-Jan-23 18:26N 35°35' E 139°60'0 0.0
2017-Jan-23 17:32N 35°35' E 139°60'0 0.0
2017-Jan-23 16:29N 35°35' E 139°60'0 0.0
2017-Jan-23 15:32N 35°35' E 139°60'4 4.4
2017-Jan-23 14:33N 35°32' E 139°56'1515.3
2017-Jan-23 13:33N 35°20' E 139°44'1413.2
2017-Jan-23 12:31N 35°06' E 139°44'24315.7
2017-Jan-22 21:05N 33°59' E 135°00'918.0
2017-Jan-22 20:34N 34°08' E 134°59'1717.3
2017-Jan-22 19:33N 34°25' E 135°01'1111.2
2017-Jan-22 18:33N 34°36' E 134°56'11315.8
2017-Jan-22 11:22N 34°01' E 132°46'1417.0
2017-Jan-22 10:33N 33°52' E 132°33'3416.3
2017-Jan-22 08:27N 33°52' E 131°51'2 0.2
2017-Jan-21 21:31N 33°52' E 131°49'2410.9
2017-Jan-21 19:18N 33°44' E 132°17'1216.3
2017-Jan-21 18:33N 33°49' E 132°30'1716.7
2017-Jan-21 17:33N 34°01' E 132°45'11514.4
2017-Jan-21 09:32N 34°37' E 134°57'1616.2
2017-Jan-21 08:33N 34°36' E 135°16'8 7.3
2017-Jan-21 07:29N 34°35' E 135°26'0 0.0
2017-Jan-21 06:23N 34°35' E 135°26'0 0.0
2017-Jan-21 05:29N 34°35' E 135°26'0 0.0
2017-Jan-21 04:29N 34°35' E 135°26'0 0.0
2017-Jan-21 03:23N 34°35' E 135°26'0 0.0
2017-Jan-21 02:29N 34°35' E 135°26'0 0.0
2017-Jan-21 01:29N 34°35' E 135°26'0 0.0
2017-Jan-21 00:23N 34°35' E 135°26'0 0.0
2017-Jan-20 23:29N 34°35' E 135°26'0 0.0
2017-Jan-20 22:33N 34°35' E 135°26'7 7.0
2017-Jan-20 21:34N 34°34' E 135°17'0 0.1
2017-Jan-20 20:18N 34°34' E 135°17'0 0.0
2017-Jan-20 19:30N 34°34' E 135°17'0 0.0
2017-Jan-20 18:24N 34°34' E 135°17'0 0.0
2017-Jan-20 17:30N 34°34' E 135°17'1111.2
2017-Jan-20 16:33N 34°35' E 135°05'  
2017-Jan-17 10:30N 34°04' E 134°59'1818.9
2017-Jan-17 09:33N 34°22' E 135°01'1918.8
2017-Jan-17 08:33N 34°34' E 135°18'6 5.9
2017-Jan-17 07:32N 34°35' E 135°26'0 0.0
2017-Jan-17 06:26N 34°35' E 135°26'0 0.0
2017-Jan-17 05:26N 34°35' E 135°26'0 0.0
2017-Jan-17 04:20N 34°35' E 135°26'0 0.0
2017-Jan-17 03:32N 34°35' E 135°26'0 0.0
2017-Jan-17 02:32N 34°35' E 135°26'0 0.0
2017-Jan-17 01:32N 34°35' E 135°26'0 0.0
2017-Jan-17 00:32N 34°35' E 135°26'0 0.0
2017-Jan-16 23:32N 34°35' E 135°26'0 0.0
2017-Jan-16 22:32N 34°35' E 135°26'7 7.6
2017-Jan-16 21:34N 34°34' E 135°17'1716.5
2017-Jan-16 20:33N 34°36' E 134°57'  
2017-Jan-14 10:32N 34°37' E 135°01'  
Track history (hours):
 
Tides and Currents Weather Stations Pressure Air Temp Water Temp Dewpoint Dewpoint Depression Visibility Wind Speed Wind Dir Waves Ship Positions

Koyo Maru

Last reported at 2017-Jan-24 10:29 UTC. Time now 2017-Jan-24 13:20 UTC.
Position N 35°07' E 139°43'.

Length 125 m; draft 6 m.

Type: Cargo ship. MMSI: 431401953.

Date/timePositionNaut miles runAvg speedWind from/ knotsBaromVisibWave heightAir tempDewpointWater temp
2017-Jan-24 10:29N 35°07' E 139°43'1212.4
2017-Jan-24 09:33N 35°18' E 139°43'1010.5
2017-Jan-24 08:33N 35°28' E 139°49'1413.7
2017-Jan-24 07:34N 35°35' E 140°03'2 0.3
2017-Jan-23 23:08N 35°37' E 140°05'3 4.6
2017-Jan-23 22:32N 35°35' E 140°03'2 2.2
2017-Jan-23 21:29N 35°35' E 139°60'0 0.0
2017-Jan-23 20:32N 35°35' E 139°60'0 0.0
2017-Jan-23 19:32N 35°35' E 139°60'0 0.0
2017-Jan-23 18:26N 35°35' E 139°60'0 0.0
2017-Jan-23 17:32N 35°35' E 139°60'0 0.0
2017-Jan-23 16:29N 35°35' E 139°60'0 0.0
2017-Jan-23 15:32N 35°35' E 139°60'4 4.4
2017-Jan-23 14:33N 35°32' E 139°56'1515.3
2017-Jan-23 13:33N 35°20' E 139°44'1413.2
2017-Jan-23 12:31N 35°06' E 139°44'24315.7
2017-Jan-22 21:05N 33°59' E 135°00'918.0
2017-Jan-22 20:34N 34°08' E 134°59'1717.3
2017-Jan-22 19:33N 34°25' E 135°01'1111.2
2017-Jan-22 18:33N 34°36' E 134°56'11315.8
2017-Jan-22 11:22N 34°01' E 132°46'1417.0
2017-Jan-22 10:33N 33°52' E 132°33'3416.3
2017-Jan-22 08:27N 33°52' E 131°51'2 0.2
2017-Jan-21 21:31N 33°52' E 131°49'2410.9
2017-Jan-21 19:18N 33°44' E 132°17'1216.3
2017-Jan-21 18:33N 33°49' E 132°30'1716.7
2017-Jan-21 17:33N 34°01' E 132°45'11514.4
2017-Jan-21 09:32N 34°37' E 134°57'1616.2
2017-Jan-21 08:33N 34°36' E 135°16'8 7.3
2017-Jan-21 07:29N 34°35' E 135°26'0 0.0
2017-Jan-21 06:23N 34°35' E 135°26'0 0.0
2017-Jan-21 05:29N 34°35' E 135°26'0 0.0
2017-Jan-21 04:29N 34°35' E 135°26'0 0.0
2017-Jan-21 03:23N 34°35' E 135°26'0 0.0
2017-Jan-21 02:29N 34°35' E 135°26'0 0.0
2017-Jan-21 01:29N 34°35' E 135°26'0 0.0
2017-Jan-21 00:23N 34°35' E 135°26'0 0.0
2017-Jan-20 23:29N 34°35' E 135°26'0 0.0
2017-Jan-20 22:33N 34°35' E 135°26'7 7.0
2017-Jan-20 21:34N 34°34' E 135°17'0 0.1
2017-Jan-20 20:18N 34°34' E 135°17'0 0.0
2017-Jan-20 19:30N 34°34' E 135°17'0 0.0
2017-Jan-20 18:24N 34°34' E 135°17'0 0.0
2017-Jan-20 17:30N 34°34' E 135°17'1111.2
2017-Jan-20 16:33N 34°35' E 135°05'  
2017-Jan-17 10:30N 34°04' E 134°59'1818.9
2017-Jan-17 09:33N 34°22' E 135°01'1918.8
2017-Jan-17 08:33N 34°34' E 135°18'6 5.9
2017-Jan-17 07:32N 34°35' E 135°26'0 0.0
2017-Jan-17 06:26N 34°35' E 135°26'0 0.0
2017-Jan-17 05:26N 34°35' E 135°26'0 0.0
2017-Jan-17 04:20N 34°35' E 135°26'0 0.0
2017-Jan-17 03:32N 34°35' E 135°26'0 0.0
2017-Jan-17 02:32N 34°35' E 135°26'0 0.0
2017-Jan-17 01:32N 34°35' E 135°26'0 0.0
2017-Jan-17 00:32N 34°35' E 135°26'0 0.0
2017-Jan-16 23:32N 34°35' E 135°26'0 0.0
2017-Jan-16 22:32N 34°35' E 135°26'7 7.6
2017-Jan-16 21:34N 34°34' E 135°17'1716.5
2017-Jan-16 20:33N 34°36' E 134°57'  
2017-Jan-14 10:32N 34°37' E 135°01'  

Dump ship's entire track history